createdAt,value
2016-11-21T00:00:58.639Z,11.32
2016-11-21T00:01:58.722Z,11.36
2016-11-21T00:02:59.036Z,11.39
2016-11-21T00:03:58.648Z,11.44
2016-11-21T00:04:59.199Z,11.38
2016-11-21T00:05:58.674Z,11.38
2016-11-21T00:06:58.860Z,11.36
2016-11-21T00:07:58.692Z,11.28
2016-11-21T00:08:58.991Z,11.17
2016-11-21T00:09:58.660Z,11.31
2016-11-21T00:10:58.669Z,11.21
2016-11-21T00:11:58.690Z,11.17
2016-11-21T00:12:58.650Z,11.25
2016-11-21T00:13:58.645Z,11.14
2016-11-21T00:14:58.711Z,11.06
2016-11-21T00:15:58.644Z,11.1
2016-11-21T00:16:58.635Z,11.09
2016-11-21T00:17:59.303Z,11.13
2016-11-21T00:18:58.769Z,11.11
2016-11-21T00:19:58.644Z,11.06
2016-11-21T00:20:58.607Z,11.07
2016-11-21T00:21:59.092Z,10.99
2016-11-21T00:22:59.042Z,11.06
2016-11-21T00:23:59.089Z,10.99
2016-11-21T00:24:59.006Z,10.96
2016-11-21T00:25:59.520Z,10.96
2016-11-21T00:26:59.962Z,11.03
2016-11-21T00:27:58.670Z,11.07
2016-11-21T00:28:58.968Z,11.06
2016-11-21T00:29:58.669Z,10.92
2016-11-21T00:30:59.905Z,11.01
2016-11-21T00:31:59.299Z,10.84
2016-11-21T00:32:59.146Z,10.96
2016-11-21T00:33:58.661Z,10.99
2016-11-21T00:34:59.047Z,10.91
2016-11-21T00:35:58.679Z,10.91
2016-11-21T00:36:58.749Z,10.8
2016-11-21T00:37:58.670Z,10.74
2016-11-21T00:38:58.682Z,10.74
2016-11-21T00:39:58.699Z,10.76
2016-11-21T00:40:58.760Z,10.7
2016-11-21T00:41:58.678Z,10.53
2016-11-21T00:42:58.715Z,10.66
2016-11-21T00:43:58.660Z,10.62
2016-11-21T00:44:58.698Z,10.66
2016-11-21T00:45:58.640Z,10.68
2016-11-21T00:46:58.646Z,10.46
2016-11-21T00:47:58.909Z,10.65
2016-11-21T00:48:58.637Z,10.44
2016-11-21T00:49:58.685Z,10.53
2016-11-21T00:50:58.669Z,10.53
2016-11-21T00:51:58.673Z,10.51
2016-11-21T00:52:58.691Z,10.42
2016-11-21T00:53:58.676Z,10.37
2016-11-21T00:54:58.650Z,10.44
2016-11-21T00:55:58.656Z,10.39
2016-11-21T00:56:58.663Z,10.36
2016-11-21T00:57:58.687Z,10.39
2016-11-21T00:58:58.637Z,10.42
2016-11-21T00:59:58.663Z,10.39
2016-11-21T01:00:58.666Z,10.34
2016-11-21T01:01:58.689Z,10.24
2016-11-21T01:02:59.292Z,10.26
2016-11-21T01:03:58.663Z,10.17
2016-11-21T01:04:58.674Z,10.21
2016-11-21T01:05:58.680Z,10.15
2016-11-21T01:06:58.754Z,10.12
2016-11-21T01:07:58.664Z,10.15
2016-11-21T01:08:58.827Z,10.17
2016-11-21T01:09:58.713Z,10.03
2016-11-21T01:10:58.705Z,10.1
2016-11-21T01:11:58.718Z,10.18
2016-11-21T01:12:58.679Z,10.01
2016-11-21T01:13:58.660Z,10.04
2016-11-21T01:14:58.692Z,10
2016-11-21T01:15:58.697Z,9.93
2016-11-21T01:16:58.727Z,10.1
2016-11-21T01:17:58.734Z,10
2016-11-21T01:18:58.696Z,9.93
2016-11-21T01:19:58.674Z,10.03
2016-11-21T01:20:58.667Z,10.09
2016-11-21T01:21:59.073Z,10.06
2016-11-21T01:22:59.081Z,9.91
2016-11-21T01:23:59.083Z,9.99
2016-11-21T01:24:59.110Z,10.06
2016-11-21T01:25:59.176Z,10.03
2016-11-21T01:26:58.910Z,10
2016-11-21T01:27:58.719Z,9.99
2016-11-21T01:28:59.003Z,9.99
2016-11-21T01:29:59.269Z,9.97
2016-11-21T01:30:58.882Z,9.99
2016-11-21T01:31:58.749Z,10.01
2016-11-21T01:32:58.711Z,10
2016-11-21T01:33:58.683Z,10.03
2016-11-21T01:34:58.698Z,10
2016-11-21T01:35:58.693Z,9.94
2016-11-21T01:36:58.680Z,9.93
2016-11-21T01:37:58.832Z,9.93
2016-11-21T01:38:58.722Z,9.93
2016-11-21T01:39:58.701Z,10.04
2016-11-21T01:40:58.697Z,10
2016-11-21T01:41:58.693Z,9.89
2016-11-21T01:42:58.716Z,9.97
2016-11-21T01:43:58.704Z,9.89
2016-11-21T01:44:58.693Z,9.88
2016-11-21T01:45:58.731Z,9.86
2016-11-21T01:46:58.703Z,9.94
2016-11-21T01:47:58.712Z,9.82
2016-11-21T01:48:58.713Z,9.81
2016-11-21T01:49:58.684Z,9.94
2016-11-21T01:50:58.701Z,9.73
2016-11-21T01:51:58.938Z,9.82
2016-11-21T01:52:58.716Z,9.86
2016-11-21T01:53:58.748Z,9.76
2016-11-21T01:54:58.713Z,9.7
2016-11-21T01:55:58.698Z,9.83
2016-11-21T01:56:58.726Z,9.81
2016-11-21T01:57:58.703Z,9.78
2016-11-21T01:58:58.695Z,9.75
2016-11-21T01:59:58.737Z,9.79
2016-11-21T02:00:58.726Z,9.79
2016-11-21T02:01:58.717Z,9.79
2016-11-21T02:02:58.718Z,9.71
2016-11-21T02:03:58.691Z,9.82
2016-11-21T02:04:58.797Z,9.91
2016-11-21T02:05:58.800Z,9.91
2016-11-21T02:06:58.756Z,9.89
2016-11-21T02:07:58.739Z,10.01
2016-11-21T02:08:58.705Z,9.96
2016-11-21T02:09:58.755Z,10.01
2016-11-21T02:10:58.702Z,9.93
2016-11-21T02:11:58.718Z,10.06
2016-11-21T02:12:58.753Z,10.06
2016-11-21T02:13:58.811Z,10.17
2016-11-21T02:14:58.861Z,10.19
2016-11-21T02:15:58.737Z,10.09
2016-11-21T02:16:58.717Z,10.21
2016-11-21T02:17:58.733Z,10.21
2016-11-21T02:18:58.728Z,10.3
2016-11-21T02:19:58.810Z,10.36
2016-11-21T02:20:58.766Z,10.42
2016-11-21T02:21:58.706Z,10.32
2016-11-21T02:22:58.759Z,10.42
2016-11-21T02:23:59.072Z,10.43
2016-11-21T02:24:59.146Z,10.47
2016-11-21T02:25:59.139Z,10.47
2016-11-21T02:26:59.071Z,10.37
2016-11-21T02:27:59.225Z,10.47
2016-11-21T02:28:58.720Z,10.51
2016-11-21T02:29:59.194Z,10.44
2016-11-21T02:30:58.718Z,10.46
2016-11-21T02:31:59.052Z,10.53
2016-11-21T02:32:58.734Z,10.52
2016-11-21T02:33:59.223Z,10.4
2016-11-21T02:34:58.797Z,10.58
2016-11-21T02:35:59.149Z,10.7
2016-11-21T02:36:58.725Z,10.62
2016-11-21T02:37:59.110Z,10.58
2016-11-21T02:38:58.791Z,10.73
2016-11-21T02:39:58.826Z,10.68
2016-11-21T02:40:58.730Z,10.63
2016-11-21T02:41:58.797Z,10.62
2016-11-21T02:42:58.767Z,10.7
2016-11-21T02:43:58.728Z,10.77
2016-11-21T02:44:58.775Z,10.68
2016-11-21T02:45:58.770Z,10.78
2016-11-21T02:46:58.750Z,10.81
2016-11-21T02:47:58.842Z,10.77
2016-11-21T02:48:58.762Z,10.8
2016-11-21T02:49:58.789Z,10.76
2016-11-21T02:50:58.727Z,10.83
2016-11-21T02:51:58.747Z,10.84
2016-11-21T02:52:58.776Z,10.88
2016-11-21T02:53:58.752Z,10.77
2016-11-21T02:54:58.728Z,10.84
2016-11-21T02:55:58.808Z,10.8
2016-11-21T02:56:58.768Z,10.88
2016-11-21T02:57:58.783Z,10.86
2016-11-21T02:58:58.727Z,10.86
2016-11-21T02:59:58.740Z,10.86
2016-11-21T03:00:58.771Z,10.81
2016-11-21T03:01:58.769Z,11.02
2016-11-21T03:02:58.864Z,10.84
2016-11-21T03:03:58.785Z,11.01
2016-11-21T03:04:58.856Z,10.86
2016-11-21T03:05:58.797Z,10.94
2016-11-21T03:06:58.751Z,10.84
2016-11-21T03:07:58.800Z,10.96
2016-11-21T03:08:58.752Z,10.88
2016-11-21T03:09:58.740Z,10.98
2016-11-21T03:10:58.775Z,11.07
2016-11-21T03:11:58.787Z,11.01
2016-11-21T03:12:58.794Z,11.02
2016-11-21T03:13:58.829Z,11.01
2016-11-21T03:14:58.792Z,11.06
2016-11-21T03:15:58.772Z,11.16
2016-11-21T03:16:58.753Z,11.31
2016-11-21T03:17:58.782Z,11.27
2016-11-21T03:18:58.765Z,11.31
2016-11-21T03:19:58.765Z,11.28
2016-11-21T03:20:58.776Z,11.36
2016-11-21T03:21:58.765Z,11.38
2016-11-21T03:22:58.809Z,11.38
2016-11-21T03:23:58.753Z,11.39
2016-11-21T03:24:59.123Z,11.43
2016-11-21T03:25:59.075Z,11.39
2016-11-21T03:26:59.157Z,11.52
2016-11-21T03:27:59.267Z,11.41
2016-11-21T03:28:59.211Z,11.39
2016-11-21T03:29:59.057Z,11.36
2016-11-21T03:30:58.804Z,11.44
2016-11-21T03:31:59.186Z,11.46
2016-11-21T03:32:58.787Z,11.36
2016-11-21T03:33:59.153Z,11.49
2016-11-21T03:34:58.766Z,11.43
2016-11-21T03:35:59.095Z,11.36
2016-11-21T03:36:58.784Z,11.47
2016-11-21T03:37:59.633Z,11.61
2016-11-21T03:38:58.819Z,11.56
2016-11-21T03:39:58.887Z,11.64
2016-11-21T03:40:58.774Z,11.53
2016-11-21T03:41:58.781Z,11.54
2016-11-21T03:42:58.786Z,11.5
2016-11-21T03:43:58.808Z,11.56
2016-11-21T03:44:58.821Z,11.57
2016-11-21T03:45:58.785Z,11.71
2016-11-21T03:46:58.778Z,11.7
2016-11-21T03:47:58.784Z,11.77
2016-11-21T03:48:58.794Z,11.65
2016-11-21T03:49:58.779Z,11.68
2016-11-21T03:50:58.810Z,11.72
2016-11-21T03:51:58.803Z,11.74
2016-11-21T03:52:58.810Z,11.75
2016-11-21T03:53:58.888Z,11.85
2016-11-21T03:54:58.783Z,11.72
2016-11-21T03:55:58.776Z,11.78
2016-11-21T03:56:58.791Z,11.86
2016-11-21T03:57:58.797Z,11.82
2016-11-21T03:58:58.995Z,11.75
2016-11-21T03:59:58.786Z,11.87
2016-11-21T04:00:58.803Z,11.8
2016-11-21T04:01:58.799Z,11.99
2016-11-21T04:02:58.871Z,11.94
2016-11-21T04:03:58.826Z,11.8
2016-11-21T04:04:58.821Z,11.75
2016-11-21T04:05:58.822Z,11.86
2016-11-21T04:06:58.853Z,11.93
2016-11-21T04:07:58.811Z,11.9
2016-11-21T04:08:58.834Z,12.06
2016-11-21T04:09:58.826Z,12.02
2016-11-21T04:10:58.833Z,11.89
2016-11-21T04:11:58.808Z,11.86
2016-11-21T04:12:58.826Z,12.01
2016-11-21T04:13:58.810Z,11.93
2016-11-21T04:14:58.802Z,11.96
2016-11-21T04:15:58.819Z,11.97
2016-11-21T04:16:59.035Z,12.08
2016-11-21T04:17:58.813Z,12.01
2016-11-21T04:18:58.819Z,11.99
2016-11-21T04:19:58.804Z,12.13
2016-11-21T04:20:59.501Z,12.08
2016-11-21T04:21:58.822Z,12.15
2016-11-21T04:22:58.846Z,12.11
2016-11-21T04:23:58.820Z,12.2
2016-11-21T04:24:58.814Z,12.19
2016-11-21T04:25:58.815Z,12.13
2016-11-21T04:26:58.809Z,12.21
2016-11-21T04:27:58.925Z,12.26
2016-11-21T04:28:58.814Z,12.23
2016-11-21T04:29:58.807Z,12.26
2016-11-21T04:30:58.828Z,12.16
2016-11-21T04:31:58.817Z,12.3
2016-11-21T04:32:58.824Z,12.29
2016-11-21T04:33:58.846Z,12.24
2016-11-21T04:34:58.820Z,12.24
2016-11-21T04:35:58.824Z,12.29
2016-11-21T04:36:58.854Z,12.41
2016-11-21T04:37:58.825Z,12.44
2016-11-21T04:38:58.867Z,12.44
2016-11-21T04:39:58.852Z,12.33
2016-11-21T04:40:58.838Z,12.37
2016-11-21T04:41:58.831Z,12.33
2016-11-21T04:42:58.803Z,12.34
2016-11-21T04:43:58.855Z,12.37
2016-11-21T04:44:58.825Z,12.29
2016-11-21T04:45:58.857Z,12.34
2016-11-21T04:46:59.174Z,12.41
2016-11-21T04:47:58.910Z,12.29
2016-11-21T04:48:58.860Z,12.44
2016-11-21T04:49:58.842Z,12.31
2016-11-21T04:50:58.835Z,12.24
2016-11-21T04:51:58.822Z,12.45
2016-11-21T04:52:58.851Z,12.44
2016-11-21T04:53:58.841Z,12.54
2016-11-21T04:54:58.827Z,12.62
2016-11-21T04:55:58.832Z,12.62
2016-11-21T04:56:58.848Z,12.52
2016-11-21T04:57:58.867Z,12.6
2016-11-21T04:58:58.865Z,12.57
2016-11-21T04:59:58.835Z,12.52
2016-11-21T05:00:58.834Z,12.59
2016-11-21T05:01:58.858Z,12.59
2016-11-21T05:02:58.844Z,12.67
2016-11-21T05:03:58.895Z,12.66
2016-11-21T05:04:59.232Z,12.66
2016-11-21T05:05:58.914Z,12.59
2016-11-21T05:06:58.925Z,12.67
2016-11-21T05:07:58.859Z,12.7
2016-11-21T05:08:58.868Z,12.71
2016-11-21T05:09:58.913Z,12.67
2016-11-21T05:10:58.857Z,12.74
2016-11-21T05:11:58.867Z,12.6
2016-11-21T05:12:58.858Z,12.74
2016-11-21T05:13:59.505Z,12.63
2016-11-21T05:14:58.998Z,12.62
2016-11-21T05:15:58.991Z,12.67
2016-11-21T05:16:58.861Z,12.69
2016-11-21T05:17:58.850Z,12.75
2016-11-21T05:18:58.887Z,12.71
2016-11-21T05:19:58.861Z,12.7
2016-11-21T05:20:58.845Z,12.78
2016-11-21T05:21:58.870Z,12.7
2016-11-21T05:22:58.866Z,12.75
2016-11-21T05:23:59.189Z,12.71
2016-11-21T05:24:58.858Z,12.79
2016-11-21T05:25:58.914Z,12.88
2016-11-21T05:26:59.451Z,12.77
2016-11-21T05:27:59.284Z,12.75
2016-11-21T05:28:59.055Z,12.88
2016-11-21T05:29:59.266Z,12.81
2016-11-21T05:30:58.860Z,12.71
2016-11-21T05:31:58.886Z,12.81
2016-11-21T05:32:58.918Z,12.93
2016-11-21T05:33:58.910Z,12.82
2016-11-21T05:34:59.096Z,12.74
2016-11-21T05:35:59.200Z,12.81
2016-11-21T05:36:58.892Z,12.71
2016-11-21T05:37:58.873Z,12.66
2016-11-21T05:38:58.895Z,12.74
2016-11-21T05:39:58.928Z,12.67
2016-11-21T05:40:58.895Z,12.69
2016-11-21T05:41:58.870Z,12.69
2016-11-21T05:42:58.866Z,12.64
2016-11-21T05:43:58.902Z,12.7
2016-11-21T05:44:58.875Z,12.54
2016-11-21T05:45:58.896Z,12.6
2016-11-21T05:46:58.864Z,12.52
2016-11-21T05:47:58.883Z,12.48
2016-11-21T05:48:59.054Z,12.48
2016-11-21T05:49:58.879Z,12.48
2016-11-21T05:50:58.914Z,12.48
2016-11-21T05:51:58.891Z,12.51
2016-11-21T05:52:58.895Z,12.57
2016-11-21T05:53:58.924Z,12.39
2016-11-21T05:54:58.938Z,12.49
2016-11-21T05:55:58.990Z,12.48
2016-11-21T05:56:58.906Z,12.49
2016-11-21T05:57:58.900Z,12.37
2016-11-21T05:58:58.908Z,12.41
2016-11-21T05:59:59.644Z,12.44
2016-11-21T06:00:58.904Z,12.31
2016-11-21T06:01:58.975Z,12.38
2016-11-21T06:02:58.918Z,12.37
2016-11-21T06:03:58.920Z,12.42
2016-11-21T06:04:58.991Z,12.45
2016-11-21T06:05:58.907Z,12.44
2016-11-21T06:06:58.969Z,12.39
2016-11-21T06:07:58.907Z,12.44
2016-11-21T06:08:58.898Z,12.51
2016-11-21T06:09:58.939Z,12.41
2016-11-21T06:10:58.992Z,12.45
2016-11-21T06:11:58.919Z,12.62
2016-11-21T06:12:58.918Z,12.62
2016-11-21T06:13:58.927Z,12.57
2016-11-21T06:14:58.920Z,12.63
2016-11-21T06:15:58.936Z,12.49
2016-11-21T06:16:58.919Z,12.62
2016-11-21T06:17:58.923Z,12.74
2016-11-21T06:18:58.923Z,12.63
2016-11-21T06:19:58.934Z,12.59
2016-11-21T06:20:58.931Z,12.7
2016-11-21T06:21:58.923Z,12.75
2016-11-21T06:22:58.913Z,12.69
2016-11-21T06:23:58.943Z,12.64
2016-11-21T06:24:58.944Z,12.69
2016-11-21T06:25:58.953Z,12.69
2016-11-21T06:26:58.902Z,12.81
2016-11-21T06:27:58.924Z,12.78
2016-11-21T06:28:58.899Z,12.7
2016-11-21T06:29:58.921Z,12.82
2016-11-21T06:30:58.914Z,12.79
2016-11-21T06:31:58.933Z,12.96
2016-11-21T06:32:58.929Z,12.92
2016-11-21T06:33:58.925Z,12.93
2016-11-21T06:34:58.923Z,12.89
2016-11-21T06:35:58.947Z,12.85
2016-11-21T06:36:58.926Z,12.96
2016-11-21T06:37:58.944Z,12.85
2016-11-21T06:38:58.924Z,12.95
2016-11-21T06:39:58.946Z,12.95
2016-11-21T06:40:58.955Z,12.89
2016-11-21T06:41:58.946Z,12.84
2016-11-21T06:42:58.922Z,12.92
2016-11-21T06:43:58.960Z,12.89
2016-11-21T06:44:58.962Z,13
2016-11-21T06:45:58.968Z,12.95
2016-11-21T06:46:59.008Z,12.96
2016-11-21T06:47:59.274Z,12.93
2016-11-21T06:48:59.001Z,12.96
2016-11-21T06:49:58.967Z,13.04
2016-11-21T06:50:58.937Z,13.07
2016-11-21T06:51:58.954Z,12.96
2016-11-21T06:52:59.045Z,12.96
2016-11-21T06:53:58.944Z,13
2016-11-21T06:54:59.024Z,12.99
2016-11-21T06:55:58.976Z,12.87
2016-11-21T06:56:58.960Z,12.92
2016-11-21T06:57:58.967Z,12.87
2016-11-21T06:58:58.963Z,12.96
2016-11-21T06:59:58.972Z,12.99
2016-11-21T07:00:58.999Z,12.88
2016-11-21T07:01:58.960Z,12.88
2016-11-21T07:02:58.969Z,12.87
2016-11-21T07:03:58.967Z,12.88
2016-11-21T07:04:58.996Z,13.07
2016-11-21T07:05:59.026Z,13.03
2016-11-21T07:06:59.008Z,12.97
2016-11-21T07:07:58.997Z,12.97
2016-11-21T07:08:58.966Z,12.99
2016-11-21T07:09:59.002Z,13
2016-11-21T07:10:58.960Z,13.06
2016-11-21T07:11:58.968Z,12.99
2016-11-21T07:12:58.952Z,13.11
2016-11-21T07:13:58.965Z,13.09
2016-11-21T07:14:58.973Z,12.97
2016-11-21T07:15:58.997Z,13.09
2016-11-21T07:16:58.985Z,13.03
2016-11-21T07:17:58.998Z,13.07
2016-11-21T07:18:59.014Z,13.17
2016-11-21T07:19:58.992Z,13.2
2016-11-21T07:20:58.965Z,13.09
2016-11-21T07:21:59.013Z,13.12
2016-11-21T07:22:59.007Z,13.15
2016-11-21T07:23:59.005Z,13.21
2016-11-21T07:24:59.025Z,13.18
2016-11-21T07:25:58.991Z,13.07
2016-11-21T07:26:58.981Z,13.15
2016-11-21T07:27:59.862Z,13.17
2016-11-21T07:28:58.998Z,13.15
2016-11-21T07:29:58.987Z,13.2
2016-11-21T07:30:59.013Z,13.22
2016-11-21T07:31:58.992Z,13.14
2016-11-21T07:32:59.015Z,13.2
2016-11-21T07:33:58.950Z,13.18
2016-11-21T07:34:58.970Z,13.17
2016-11-21T07:35:59.032Z,13.24
2016-11-21T07:36:58.976Z,13.21
2016-11-21T07:37:58.995Z,13.25
2016-11-21T07:38:59.003Z,13.22
2016-11-21T07:39:58.979Z,13.27
2016-11-21T07:40:58.989Z,13.2
2016-11-21T07:41:58.972Z,13.12
2016-11-21T07:42:59.023Z,13.14
2016-11-21T07:43:59.148Z,13.2
2016-11-21T07:44:59.028Z,13.2
2016-11-21T07:45:59.023Z,13.27
2016-11-21T07:46:59.001Z,13.17
2016-11-21T07:47:58.998Z,13.22
2016-11-21T07:48:59.038Z,13.21
2016-11-21T07:50:00.179Z,13.3
2016-11-21T07:50:58.991Z,13.22
2016-11-21T07:51:59.004Z,13.3
2016-11-21T07:52:59.126Z,13.25
2016-11-21T07:53:59.042Z,13.18
2016-11-21T07:54:58.984Z,13.25
2016-11-21T07:55:59.048Z,13.41
2016-11-21T07:56:59.017Z,13.3
2016-11-21T07:57:59.037Z,13.37
2016-11-21T07:58:59.026Z,13.27
2016-11-21T07:59:58.998Z,13.33
2016-11-21T08:00:58.999Z,13.43
2016-11-21T08:01:59.017Z,13.32
2016-11-21T08:02:59.021Z,13.37
2016-11-21T08:03:59.071Z,13.47
2016-11-21T08:04:59.031Z,13.47
2016-11-21T08:05:59.049Z,13.38
2016-11-21T08:06:59.072Z,13.36
2016-11-21T08:07:59.027Z,13.4
2016-11-21T08:08:59.087Z,13.4
2016-11-21T08:09:59.074Z,13.56
2016-11-21T08:10:59.065Z,13.58
2016-11-21T08:11:59.039Z,13.52
2016-11-21T08:12:59.030Z,13.58
2016-11-21T08:13:59.029Z,13.71
2016-11-21T08:14:59.014Z,13.59
2016-11-21T08:15:59.066Z,13.55
2016-11-21T08:16:59.013Z,13.69
2016-11-21T08:17:59.042Z,13.59
2016-11-21T08:18:59.046Z,13.58
2016-11-21T08:19:59.010Z,13.63
2016-11-21T08:20:59.042Z,13.56
2016-11-21T08:21:59.058Z,13.7
2016-11-21T08:22:59.044Z,13.74
2016-11-21T08:23:59.082Z,13.74
2016-11-21T08:24:59.065Z,13.76
2016-11-21T08:25:59.060Z,13.65
2016-11-21T08:26:59.055Z,13.74
2016-11-21T08:27:59.031Z,13.7
2016-11-21T08:28:59.069Z,13.8
2016-11-21T08:29:59.036Z,13.87
2016-11-21T08:30:59.046Z,13.88
2016-11-21T08:31:59.030Z,13.81
2016-11-21T08:32:59.043Z,13.74
2016-11-21T08:33:59.086Z,13.84
2016-11-21T08:34:59.043Z,13.83
2016-11-21T08:35:59.069Z,13.89
2016-11-21T08:36:59.021Z,13.76
2016-11-21T08:37:59.027Z,13.87
2016-11-21T08:38:59.064Z,13.77
2016-11-21T08:39:59.097Z,13.84
2016-11-21T08:40:59.104Z,13.88
2016-11-21T08:41:59.110Z,13.87
2016-11-21T08:42:59.075Z,13.88
2016-11-21T08:43:59.044Z,13.89
2016-11-21T08:44:59.056Z,13.96
2016-11-21T08:45:59.035Z,13.92
2016-11-21T08:46:59.052Z,13.87
2016-11-21T08:47:59.045Z,13.89
2016-11-21T08:48:59.056Z,13.95
2016-11-21T08:49:59.047Z,13.98
2016-11-21T08:50:59.060Z,13.91
2016-11-21T08:51:59.091Z,13.87
2016-11-21T08:52:59.075Z,13.88
2016-11-21T08:53:59.047Z,13.84
2016-11-21T08:54:59.069Z,13.8
2016-11-21T08:55:59.102Z,13.71
2016-11-21T08:56:59.078Z,13.83
2016-11-21T08:57:59.059Z,13.84
2016-11-21T08:58:59.122Z,13.77
2016-11-21T08:59:59.062Z,13.77
2016-11-21T09:00:59.111Z,13.77
2016-11-21T09:01:59.077Z,13.77
2016-11-21T09:02:59.094Z,13.81
2016-11-21T09:03:59.486Z,13.84
2016-11-21T09:04:59.091Z,13.74
2016-11-21T09:06:00.125Z,13.71
2016-11-21T09:06:59.105Z,13.76
2016-11-21T09:07:59.083Z,13.76
2016-11-21T09:09:00.011Z,13.84
2016-11-21T09:09:59.860Z,13.73
2016-11-21T09:10:59.188Z,13.8
2016-11-21T09:11:59.140Z,13.77
2016-11-21T09:12:59.106Z,13.8
2016-11-21T09:13:59.160Z,13.77
2016-11-21T09:14:59.063Z,13.79
2016-11-21T09:15:59.422Z,13.8
2016-11-21T09:16:59.101Z,13.89
2016-11-21T09:17:59.098Z,13.84
2016-11-21T09:18:59.386Z,13.87
2016-11-21T09:19:59.069Z,13.87
2016-11-21T09:20:59.166Z,13.91
2016-11-21T09:21:59.771Z,13.96
2016-11-21T09:22:59.677Z,13.92
2016-11-21T09:23:59.101Z,13.92
2016-11-21T09:24:59.438Z,13.91
2016-11-21T09:25:59.127Z,13.94
2016-11-21T09:26:59.090Z,13.95
2016-11-21T09:27:59.082Z,14.14
2016-11-21T09:28:59.105Z,14.02
2016-11-21T09:29:59.095Z,14.07
2016-11-21T09:30:59.095Z,13.99
2016-11-21T09:31:59.070Z,14.07
2016-11-21T09:32:59.619Z,13.98
2016-11-21T09:33:59.156Z,14.04
2016-11-21T09:34:59.117Z,14.1
2016-11-21T09:35:59.072Z,14.12
2016-11-21T09:36:59.120Z,14.25
2016-11-21T09:37:59.126Z,14.17
2016-11-21T09:38:59.078Z,14.13
2016-11-21T09:40:00.236Z,14.21
2016-11-21T09:40:59.066Z,14.16
2016-11-21T09:41:59.919Z,14.28
2016-11-21T09:42:59.884Z,14.12
2016-11-21T09:44:00.423Z,14.13
2016-11-21T09:44:59.588Z,14.06
2016-11-21T09:45:59.110Z,14.19
2016-11-21T09:47:00.388Z,14.1
2016-11-21T09:48:00.129Z,14.13
2016-11-21T09:48:59.129Z,14.16
2016-11-21T09:49:59.183Z,14.19
2016-11-21T09:51:00.144Z,14.14
2016-11-21T09:51:59.134Z,14.16
2016-11-21T09:53:00.393Z,14.07
2016-11-21T09:54:00.270Z,13.94
2016-11-21T09:54:59.164Z,14.02
2016-11-21T09:55:59.565Z,13.99
2016-11-21T09:56:59.161Z,14.01
2016-11-21T09:57:59.116Z,14.02
2016-11-21T09:58:59.172Z,14.1
2016-11-21T09:59:59.137Z,13.96
2016-11-21T10:00:59.118Z,14.02
2016-11-21T10:01:59.094Z,14.06
2016-11-21T10:02:59.086Z,13.94
2016-11-21T10:03:59.122Z,13.89
2016-11-21T10:04:59.156Z,13.98
2016-11-21T10:05:59.130Z,13.94
2016-11-21T10:06:59.135Z,14.07
2016-11-21T10:07:59.130Z,13.96
2016-11-21T10:08:59.129Z,13.98
2016-11-21T10:09:59.130Z,14.02
2016-11-21T10:10:59.126Z,14.1
2016-11-21T10:11:59.235Z,14.09
2016-11-21T10:12:59.139Z,14.1
2016-11-21T10:13:59.133Z,14.07
2016-11-21T10:14:59.225Z,14.14
2016-11-21T10:15:59.207Z,14.12
2016-11-21T10:16:59.152Z,14.13
2016-11-21T10:17:59.187Z,14.17
2016-11-21T10:18:59.161Z,14.1
2016-11-21T10:19:59.184Z,14.13
2016-11-21T10:20:59.138Z,14.12
2016-11-21T10:21:59.153Z,14.2
2016-11-21T10:22:59.142Z,14.17
2016-11-21T10:23:59.261Z,14.13
2016-11-21T10:25:00.034Z,14.2
2016-11-21T10:25:59.147Z,14.07
2016-11-21T10:26:59.181Z,14.07
2016-11-21T10:27:59.218Z,14.19
2016-11-21T10:28:59.142Z,13.95
2016-11-21T10:29:59.165Z,13.99
2016-11-21T10:30:59.171Z,14.04
2016-11-21T10:31:59.164Z,14.12
2016-11-21T10:32:59.164Z,13.98
2016-11-21T10:33:59.124Z,13.96
2016-11-21T10:34:59.157Z,13.95
2016-11-21T10:35:59.134Z,14.02
2016-11-21T10:36:59.150Z,13.94
2016-11-21T10:37:59.127Z,13.88
2016-11-21T10:38:59.137Z,13.88
2016-11-21T10:39:59.214Z,13.91
2016-11-21T10:40:59.155Z,13.88
2016-11-21T10:41:59.157Z,13.84
2016-11-21T10:42:59.149Z,13.8
2016-11-21T10:43:59.126Z,13.76
2016-11-21T10:44:59.167Z,13.79
2016-11-21T10:45:59.167Z,13.7
2016-11-21T10:46:59.127Z,13.81
2016-11-21T10:47:59.150Z,13.76
2016-11-21T10:48:59.149Z,13.73
2016-11-21T10:49:59.172Z,13.8
2016-11-21T10:50:59.234Z,13.77
2016-11-21T10:51:59.149Z,13.79
2016-11-21T10:52:59.175Z,13.71
2016-11-21T10:53:59.178Z,13.73
2016-11-21T10:54:59.205Z,13.79
2016-11-21T10:55:59.158Z,13.74
2016-11-21T10:56:59.148Z,13.74
2016-11-21T10:57:59.186Z,13.73
2016-11-21T10:58:59.161Z,13.63
2016-11-21T10:59:59.286Z,13.77
2016-11-21T11:00:59.161Z,13.7
2016-11-21T11:01:59.164Z,13.77
2016-11-21T11:02:59.218Z,13.73
2016-11-21T11:03:59.183Z,13.76
2016-11-21T11:04:59.155Z,13.76
2016-11-21T11:05:59.207Z,13.88
2016-11-21T11:06:59.171Z,13.74
2016-11-21T11:07:59.143Z,13.89
2016-11-21T11:08:59.167Z,13.99
2016-11-21T11:09:59.209Z,13.84
2016-11-21T11:10:59.174Z,13.88
2016-11-21T11:11:59.974Z,13.92
2016-11-21T11:12:59.196Z,13.91
2016-11-21T11:13:59.209Z,13.83
2016-11-21T11:14:59.164Z,13.92
2016-11-21T11:15:59.172Z,13.98
2016-11-21T11:16:59.165Z,13.94
2016-11-21T11:17:59.245Z,14.01
2016-11-21T11:18:59.174Z,13.92
2016-11-21T11:20:00.464Z,13.88
2016-11-21T11:20:59.188Z,14.02
2016-11-21T11:21:59.247Z,14.02
2016-11-21T11:22:59.193Z,13.96
2016-11-21T11:23:59.183Z,14.14
2016-11-21T11:25:00.538Z,14.12
2016-11-21T11:25:59.201Z,14.13
2016-11-21T11:26:59.381Z,14.14
2016-11-21T11:27:59.197Z,14.2
2016-11-21T11:28:59.181Z,14.24
2016-11-21T11:29:59.181Z,14.09
2016-11-21T11:30:59.181Z,14.16
2016-11-21T11:31:59.538Z,14.17
2016-11-21T11:32:59.261Z,14.02
2016-11-21T11:33:59.206Z,14.14
2016-11-21T11:34:59.388Z,14.21
2016-11-21T11:35:59.301Z,14.2
2016-11-21T11:36:59.222Z,14.16
2016-11-21T11:37:59.190Z,14.1
2016-11-21T11:38:59.213Z,14.25
2016-11-21T11:39:59.406Z,14.12
2016-11-21T11:40:59.234Z,14.21
2016-11-21T11:41:59.245Z,14.19
2016-11-21T11:42:59.234Z,14.25
2016-11-21T11:43:59.401Z,14.16
2016-11-21T11:44:59.239Z,14.17
2016-11-21T11:45:59.262Z,14.16
2016-11-21T11:46:59.219Z,14.14
2016-11-21T11:47:59.196Z,14.2
2016-11-21T11:48:59.221Z,14.13
2016-11-21T11:49:59.436Z,14.16
2016-11-21T11:50:59.231Z,14.19
2016-11-21T11:51:59.327Z,14.17
2016-11-21T11:52:59.237Z,14.25
2016-11-21T11:53:59.248Z,14.31
2016-11-21T11:54:59.247Z,14.14
2016-11-21T11:55:59.222Z,14.1
2016-11-21T11:56:59.270Z,14.09
2016-11-21T11:57:59.488Z,14.19
2016-11-21T11:58:59.234Z,14.14
2016-11-21T11:59:59.358Z,14.12
2016-11-21T12:00:59.202Z,14.13
2016-11-21T12:01:59.359Z,14.16
2016-11-21T12:02:59.233Z,14.06
2016-11-21T12:03:59.258Z,13.99
2016-11-21T12:04:59.255Z,14.06
2016-11-21T12:05:59.261Z,14.1
2016-11-21T12:06:59.228Z,14.1
2016-11-21T12:07:59.228Z,14.21
2016-11-21T12:08:59.347Z,13.99
2016-11-21T12:09:59.321Z,14.06
2016-11-21T12:10:59.336Z,14.1
2016-11-21T12:11:59.241Z,14.1
2016-11-21T12:12:59.235Z,14.02
2016-11-21T12:13:59.239Z,14.07
2016-11-21T12:14:59.225Z,14.09
2016-11-21T12:15:59.235Z,14.04
2016-11-21T12:16:59.271Z,14.04
2016-11-21T12:17:59.264Z,14.06
2016-11-21T12:18:59.247Z,14.19
2016-11-21T12:19:59.263Z,14.01
2016-11-21T12:20:59.222Z,14.16
2016-11-21T12:21:59.239Z,14.04
2016-11-21T12:22:59.248Z,13.99
2016-11-21T12:23:59.268Z,14.13
2016-11-21T12:24:59.248Z,14.1
2016-11-21T12:25:59.277Z,14.04
2016-11-21T12:26:59.951Z,14.2
2016-11-21T12:27:59.262Z,14.2
2016-11-21T12:29:00.211Z,14.2
2016-11-21T12:30:00.168Z,14.12
2016-11-21T12:30:59.243Z,14.13
2016-11-21T12:31:59.629Z,14.01
2016-11-21T12:33:00.339Z,14.02
2016-11-21T12:33:59.567Z,14.24
2016-11-21T12:34:59.624Z,14.1
2016-11-21T12:35:59.289Z,14.2
2016-11-21T12:36:59.335Z,14.16
2016-11-21T12:37:59.274Z,14.14
2016-11-21T12:38:59.275Z,14.09
2016-11-21T12:40:00.413Z,14.14
2016-11-21T12:41:00.314Z,14.25
2016-11-21T12:41:59.431Z,14.28
2016-11-21T12:42:59.684Z,14.24
2016-11-21T12:44:00.438Z,14.21
2016-11-21T12:44:59.422Z,14.27
2016-11-21T12:45:59.436Z,14.32
2016-11-21T12:46:59.963Z,14.31
2016-11-21T12:47:59.280Z,14.34
2016-11-21T12:49:00.299Z,14.35
2016-11-21T12:49:59.320Z,14.44
2016-11-21T12:50:59.619Z,14.32
2016-11-21T12:51:59.272Z,14.46
2016-11-21T12:53:00.057Z,14.42
2016-11-21T12:53:59.351Z,14.43
2016-11-21T12:54:59.831Z,14.38
2016-11-21T12:55:59.325Z,14.38
2016-11-21T12:56:59.331Z,14.37
2016-11-21T12:57:59.300Z,14.43